createdAt,value
2022-08-17T00:00:11.031Z,95097.57
2022-08-17T00:03:02.867Z,95096.75
2022-08-17T00:05:34.940Z,95097.86
2022-08-17T00:08:06.260Z,95099.89
2022-08-17T00:10:38.408Z,95098.80
2022-08-17T00:13:09.783Z,95101.94
2022-08-17T00:15:38.805Z,95108.70
2022-08-17T00:19:00.347Z,95106.16
2022-08-17T00:20:44.072Z,95100.75
2022-08-17T00:23:16.307Z,95102.11
2022-08-17T00:25:49.085Z,95107.35
2022-08-17T00:28:18.794Z,95107.27
2022-08-17T00:30:52.853Z,95103.81
2022-08-17T00:33:32.984Z,95095.91
2022-08-17T00:36:08.078Z,95099.97
2022-08-17T00:38:43.490Z,95095.73
2022-08-17T00:41:15.526Z,95093.23
2022-08-17T00:43:51.514Z,95095.25
2022-08-17T00:46:30.826Z,95093.91
2022-08-17T00:48:58.864Z,95091.87
2022-08-17T00:51:48.787Z,95083.45
2022-08-17T00:54:23.411Z,95073.33
2022-08-17T00:56:58.113Z,95083.28
2022-08-17T00:59:31.227Z,95082.27
2022-08-17T01:02:03.218Z,95083.22
2022-08-17T01:04:33.794Z,95082.52
2022-08-17T01:07:05.230Z,95084.13
2022-08-17T01:09:39.589Z,95084.95
2022-08-17T01:12:12.619Z,95086.68
2022-08-17T01:14:45.542Z,95088.50
2022-08-17T01:17:18.037Z,95096.61
2022-08-17T01:19:48.407Z,95093.75
2022-08-17T01:22:24.208Z,95087.74
2022-08-17T01:24:56.122Z,95088.17
2022-08-17T01:27:27.030Z,95093.64
2022-08-17T01:30:01.636Z,95089.92
2022-08-17T01:32:32.284Z,95089.11
2022-08-17T01:35:05.323Z,95082.09
2022-08-17T01:37:40.621Z,95074.65
2022-08-17T01:40:19.683Z,95079.63
2022-08-17T01:42:55.243Z,95085.87
2022-08-17T01:45:35.502Z,95085.09
2022-08-17T01:48:29.825Z,95082.22
2022-08-17T01:51:05.008Z,95081.30
2022-08-17T01:53:40.989Z,95076.98
2022-08-17T01:56:13.012Z,95082.20
2022-08-17T01:58:46.975Z,95083.66
2022-08-17T02:01:26.199Z,95088.78
2022-08-17T02:04:31.225Z,95080.00
2022-08-17T02:07:02.908Z,95086.75
2022-08-17T02:09:38.168Z,95094.16
2022-08-17T02:12:39.171Z,95101.14
2022-08-17T02:14:39.096Z,95091.48
2022-08-17T02:17:08.047Z,95090.13
2022-08-17T02:19:36.868Z,95095.84
2022-08-17T02:22:08.787Z,95099.34
2022-08-17T02:25:00.288Z,95100.84
2022-08-17T02:27:29.086Z,95099.44
2022-08-17T02:30:50.094Z,95093.17
2022-08-17T02:32:39.652Z,95092.58
2022-08-17T02:35:11.699Z,95094.22
2022-08-17T02:37:44.940Z,95096.02
2022-08-17T02:40:35.614Z,95095.53
2022-08-17T02:42:50.526Z,95091.20
2022-08-17T02:45:23.010Z,95091.76
2022-08-17T02:47:52.619Z,95092.65
2022-08-17T02:50:23.984Z,95097.73
2022-08-17T02:53:02.083Z,95102.13
2022-08-17T02:55:32.041Z,95105.78
2022-08-17T02:58:01.883Z,95105.78
2022-08-17T03:00:41.221Z,95104.48
2022-08-17T03:03:13.683Z,95104.65
2022-08-17T03:05:43.092Z,95109.70
2022-08-17T03:08:13.096Z,95107.87
2022-08-17T03:10:45.817Z,95100.94
2022-08-17T03:13:17.726Z,95104.63
2022-08-17T03:15:49.614Z,95112.12
2022-08-17T03:18:25.014Z,95119.17
2022-08-17T03:20:51.049Z,95119.68
2022-08-17T03:23:23.932Z,95123.12
2022-08-17T03:25:52.989Z,95119.34
2022-08-17T03:28:21.381Z,95119.97
2022-08-17T03:30:51.949Z,95119.00
2022-08-17T03:33:25.752Z,95122.17
2022-08-17T03:35:58.483Z,95128.45
2022-08-17T03:38:27.777Z,95128.03
2022-08-17T03:40:59.778Z,95126.21
2022-08-17T03:43:31.782Z,95127.14
2022-08-17T03:46:27.723Z,95127.39
2022-08-17T03:49:10.733Z,95131.30
2022-08-17T03:51:57.138Z,95134.70
2022-08-17T03:54:45.082Z,95136.73
2022-08-17T03:57:14.586Z,95117.35
2022-08-17T03:59:45.409Z,95133.09
2022-08-17T04:02:29.798Z,95141.27
2022-08-17T04:04:59.724Z,95144.20
2022-08-17T04:07:33.557Z,95141.58
2022-08-17T04:10:02.378Z,95136.08
2022-08-17T04:12:35.825Z,95137.92
2022-08-17T04:15:05.323Z,95147.23
2022-08-17T04:17:41.109Z,95151.88
2022-08-17T04:20:12.466Z,95151.72
2022-08-17T04:22:41.410Z,95157.95
2022-08-17T04:25:15.939Z,95156.70
2022-08-17T04:27:46.099Z,95161.37
2022-08-17T04:30:15.024Z,95157.01
2022-08-17T04:33:19.230Z,95153.98
2022-08-17T04:35:32.362Z,95154.84
2022-08-17T04:38:01.940Z,95161.77
2022-08-17T04:40:48.747Z,95166.15
2022-08-17T04:43:20.540Z,95170.39
2022-08-17T04:45:56.113Z,95176.83
2022-08-17T04:48:29.702Z,95179.13
2022-08-17T04:50:56.419Z,95179.88
2022-08-17T04:53:26.500Z,95176.84
2022-08-17T04:55:59.039Z,95183.77
2022-08-17T04:58:35.666Z,95182.94
2022-08-17T05:01:05.938Z,95184.28
2022-08-17T05:03:34.795Z,95181.72
2022-08-17T05:06:12.631Z,95182.56
2022-08-17T05:08:39.851Z,95180.67
2022-08-17T05:11:09.249Z,95179.25
2022-08-17T05:13:41.059Z,95177.14
2022-08-17T05:16:12.949Z,95182.37
2022-08-17T05:18:44.068Z,95181.83
2022-08-17T05:21:17.180Z,95177.21
2022-08-17T05:23:56.408Z,95189.52
2022-08-17T05:26:27.378Z,95194.80
2022-08-17T05:29:02.699Z,95188.43
2022-08-17T05:31:36.056Z,95191.94
2022-08-17T05:34:04.936Z,95195.48
2022-08-17T05:36:42.199Z,95192.92
2022-08-17T05:39:04.640Z,95191.73
2022-08-17T05:41:36.198Z,95198.58
2022-08-17T05:44:05.235Z,95190.67
2022-08-17T05:46:37.331Z,95195.98
2022-08-17T05:49:11.638Z,95190.57
2022-08-17T05:51:55.861Z,95190.30
2022-08-17T05:54:56.355Z,95190.45
2022-08-17T05:57:53.811Z,95191.83
2022-08-17T06:00:30.397Z,95186.68
2022-08-17T06:03:01.223Z,95175.02
2022-08-17T06:06:01.906Z,95194.88
2022-08-17T06:08:52.961Z,95193.75
2022-08-17T06:11:39.672Z,95192.65
2022-08-17T06:14:32.377Z,95190.44
2022-08-17T06:17:07.052Z,95185.42
2022-08-17T06:19:46.004Z,95190.58
2022-08-17T06:22:18.307Z,95189.84
2022-08-17T06:25:10.235Z,95195.82
2022-08-17T06:27:46.241Z,95193.21
2022-08-17T06:30:27.790Z,95192.58
2022-08-17T06:33:12.362Z,95191.84
2022-08-17T06:35:44.825Z,95194.42
2022-08-17T06:38:54.915Z,95192.89
2022-08-17T06:47:34.156Z,95187.25
2022-08-17T06:50:16.355Z,95189.70
2022-08-17T06:52:57.396Z,95187.45
2022-08-17T06:55:38.053Z,95188.28
2022-08-17T06:58:15.788Z,95184.27
2022-08-17T07:00:44.646Z,95183.59
2022-08-17T07:03:33.408Z,95187.24
2022-08-17T07:06:10.794Z,95191.47
2022-08-17T07:08:44.850Z,95181.41
2022-08-17T07:11:19.618Z,95183.11
2022-08-17T07:14:22.370Z,95183.75
2022-08-17T07:16:54.303Z,95188.12
2022-08-17T07:19:30.113Z,95180.58
2022-08-17T07:22:31.126Z,95181.04
2022-08-17T07:25:08.054Z,95187.07
2022-08-17T07:27:44.695Z,95182.98
2022-08-17T07:30:16.464Z,95181.42
2022-08-17T07:32:52.755Z,95181.09
2022-08-17T07:35:24.751Z,95178.30
2022-08-17T07:38:07.543Z,95178.05
2022-08-17T07:41:03.079Z,95178.17
2022-08-17T07:44:00.130Z,95174.95
2022-08-17T07:47:29.864Z,95172.73
2022-08-17T07:50:32.047Z,95171.58
2022-08-17T07:53:28.775Z,95165.11
2022-08-17T07:59:37.126Z,95165.36
2022-08-17T08:12:33.669Z,95159.22
2022-08-17T08:15:20.395Z,95169.13
2022-08-17T08:21:58.129Z,95166.03
2022-08-17T08:24:41.627Z,95166.38
2022-08-17T08:27:35.493Z,95158.82
2022-08-17T08:30:24.588Z,95153.73
2022-08-17T08:32:57.296Z,95153.75
2022-08-17T08:35:45.678Z,95154.97
2022-08-17T08:38:40.235Z,95144.73
2022-08-17T08:41:20.644Z,95141.30
2022-08-17T08:44:11.370Z,95139.67
2022-08-17T08:46:49.114Z,95141.73
2022-08-17T08:49:45.292Z,95143.15
2022-08-17T08:51:57.590Z,95135.72
2022-08-17T08:54:31.974Z,95132.20
2022-08-17T08:59:58.266Z,95130.13
2022-08-17T09:02:36.352Z,95125.59
2022-08-17T09:05:16.558Z,95122.17
2022-08-17T09:10:49.212Z,95120.47
2022-08-17T09:13:37.346Z,95125.64
2022-08-17T09:16:19.851Z,95085.01
2022-08-17T09:19:04.485Z,95126.56
2022-08-17T09:21:48.094Z,95117.53
2022-08-17T09:24:28.397Z,95116.36
2022-08-17T09:27:16.036Z,95125.77
2022-08-17T09:29:57.811Z,95132.63
2022-08-17T09:32:44.577Z,95125.83
2022-08-17T09:35:19.987Z,95120.59
2022-08-17T09:38:17.092Z,95116.41
2022-08-17T09:40:56.971Z,95116.27
2022-08-17T09:43:40.945Z,95115.33
2022-08-17T09:46:24.629Z,95118.03
2022-08-17T09:49:15.251Z,95118.85
2022-08-17T09:52:11.320Z,95111.54
2022-08-17T09:54:42.588Z,95121.03
2022-08-17T09:57:31.007Z,95114.28
2022-08-17T10:00:20.172Z,95107.09
2022-08-17T10:03:28.777Z,95102.45
2022-08-17T10:06:13.444Z,95096.57
2022-08-17T10:09:04.647Z,95100.27
2022-08-17T10:11:48.277Z,95099.11
2022-08-17T10:14:36.399Z,95094.03
2022-08-17T10:17:03.896Z,95089.91
2022-08-17T10:19:47.564Z,95094.58
2022-08-17T10:22:40.098Z,95094.28
2022-08-17T10:25:48.696Z,95094.59
2022-08-17T10:30:37.080Z,95092.29
2022-08-17T10:31:34.147Z,95087.08
2022-08-17T10:33:53.993Z,95087.05
2022-08-17T10:36:25.484Z,95093.99
2022-08-17T10:39:21.228Z,95087.00
2022-08-17T10:41:53.190Z,95084.02
2022-08-17T10:44:42.725Z,95075.81
2022-08-17T10:47:18.545Z,95079.38
2022-08-17T10:49:56.286Z,95074.05
2022-08-17T10:52:33.973Z,95066.05
2022-08-17T10:55:15.129Z,95069.94
2022-08-17T10:58:16.038Z,95071.83
2022-08-17T11:01:03.071Z,95069.30
2022-08-17T11:03:45.914Z,95074.83
2022-08-17T11:06:26.122Z,95063.09
2022-08-17T11:09:40.530Z,95071.67
2022-08-17T11:12:15.362Z,95070.06
2022-08-17T11:15:20.048Z,95072.18
2022-08-17T11:18:15.900Z,95060.33
2022-08-17T11:21:27.464Z,95070.06
2022-08-17T11:24:35.100Z,95074.70
2022-08-17T11:30:30.073Z,95076.05
2022-08-17T11:33:15.795Z,95069.31
2022-08-17T11:39:29.996Z,95066.97
2022-08-17T11:46:22.735Z,95084.97
2022-08-17T11:49:21.196Z,95094.84
2022-08-17T11:52:12.581Z,95101.19
2022-08-17T11:54:47.746Z,95084.31
2022-08-17T11:57:31.736Z,95099.48
2022-08-17T12:00:08.651Z,95094.66
2022-08-17T12:02:47.835Z,95101.08
2022-08-17T12:05:18.015Z,95108.39
2022-08-17T12:07:49.766Z,95107.05
2022-08-17T12:13:09.125Z,95118.85
2022-08-17T12:15:40.669Z,95113.09
2022-08-17T12:18:14.201Z,95111.62
2022-08-17T12:20:56.097Z,95116.73
2022-08-17T12:26:22.911Z,95108.11
2022-08-17T12:28:56.058Z,95111.70
2022-08-17T12:32:05.983Z,95094.95
2022-08-17T12:35:08.290Z,95092.30
2022-08-17T12:37:37.034Z,95095.59
2022-08-17T12:40:25.363Z,95092.98
2022-08-17T12:43:13.640Z,95096.29
2022-08-17T12:52:19.759Z,95083.63
2022-08-17T12:57:55.376Z,95084.05
2022-08-17T13:00:34.959Z,95071.88
2022-08-17T13:03:12.575Z,95088.06
2022-08-17T13:05:44.190Z,95081.20
2022-08-17T13:08:19.246Z,95079.08
2022-08-17T13:11:00.702Z,95074.09
2022-08-17T13:13:35.706Z,95066.41
2022-08-17T13:16:09.328Z,95069.77
2022-08-17T13:18:53.828Z,95059.44
2022-08-17T13:21:29.920Z,95064.48
2022-08-17T13:24:10.282Z,95069.56
2022-08-17T13:26:41.925Z,95068.70
2022-08-17T13:29:31.797Z,95060.83
2022-08-17T13:32:13.605Z,95067.45
2022-08-17T13:35:06.526Z,95076.56
2022-08-17T13:37:28.377Z,95068.70
2022-08-17T13:39:59.695Z,95068.02
2022-08-17T13:42:50.547Z,95071.80
2022-08-17T13:45:36.768Z,95067.83
2022-08-17T13:48:12.523Z,95059.57
2022-08-17T13:50:45.230Z,95059.22
2022-08-17T13:53:38.189Z,95051.05
2022-08-17T13:56:31.710Z,95048.55
2022-08-17T13:58:44.758Z,95051.45
2022-08-17T14:01:39.643Z,95040.91
2022-08-17T14:04:11.610Z,95042.92
2022-08-17T14:06:58.652Z,95046.06
2022-08-17T14:09:36.808Z,95037.80
2022-08-17T14:12:03.769Z,95042.53
2022-08-17T14:14:33.576Z,95032.54
2022-08-17T14:17:02.274Z,95037.66
2022-08-17T14:19:31.297Z,95036.39
2022-08-17T14:22:01.789Z,95028.23
2022-08-17T14:24:33.646Z,95032.27
2022-08-17T14:27:04.751Z,95040.51
2022-08-17T14:29:35.941Z,95039.25
2022-08-17T14:32:10.640Z,95035.64
2022-08-17T14:34:39.309Z,95040.02
2022-08-17T14:37:19.656Z,95036.14
2022-08-17T14:42:46.121Z,95034.54
2022-08-17T14:45:30.471Z,95037.44
2022-08-17T14:47:46.711Z,95036.13
2022-08-17T14:50:19.561Z,95038.08
2022-08-17T14:55:43.135Z,95032.55
2022-08-17T14:58:12.036Z,95038.45
2022-08-17T15:00:57.636Z,95028.78
2022-08-17T15:06:37.570Z,95028.12
2022-08-17T15:09:06.416Z,95025.36
2022-08-17T15:11:35.114Z,95042.28
2022-08-17T15:14:03.891Z,95041.38
2022-08-17T15:16:34.993Z,95037.55
2022-08-17T15:19:08.813Z,95039.63
2022-08-17T15:21:37.810Z,95037.02
2022-08-17T15:24:09.084Z,95031.77
2022-08-17T15:26:56.779Z,95040.45
2022-08-17T15:29:29.964Z,95032.52
2022-08-17T15:32:00.920Z,95035.96
2022-08-17T15:34:30.122Z,95036.91
2022-08-17T15:36:58.897Z,95036.91
2022-08-17T15:39:33.681Z,95045.34
2022-08-17T15:42:05.062Z,95043.58
2022-08-17T15:44:37.608Z,95036.81
2022-08-17T15:47:28.712Z,95029.00
2022-08-17T15:49:55.461Z,95034.44
2022-08-17T15:52:29.795Z,95029.78
2022-08-17T15:55:01.898Z,95034.17
2022-08-17T15:57:32.510Z,95033.05
2022-08-17T16:00:02.403Z,95039.77
2022-08-17T16:03:45.451Z,95042.67
2022-08-17T16:05:21.832Z,95037.42
2022-08-17T16:07:53.475Z,95038.94
2022-08-17T16:10:34.588Z,95034.10
2022-08-17T16:12:56.623Z,95041.43
2022-08-17T16:15:42.799Z,95046.97
2022-08-17T16:18:13.488Z,95046.43
2022-08-17T16:20:52.729Z,95044.28
2022-08-17T16:26:29.370Z,95043.81
2022-08-17T16:29:08.212Z,95045.04
2022-08-17T16:31:38.135Z,95041.77
2022-08-17T16:34:32.580Z,95044.34
2022-08-17T16:37:02.111Z,95040.41
2022-08-17T16:42:37.856Z,95047.55
2022-08-17T16:45:11.790Z,95056.31
2022-08-17T16:47:42.251Z,95057.49
2022-08-17T16:50:16.315Z,95054.63
2022-08-17T16:52:47.707Z,95058.28
2022-08-17T16:55:21.586Z,95060.48
2022-08-17T16:57:59.970Z,95059.06
2022-08-17T17:00:37.827Z,95063.02
2022-08-17T17:03:35.384Z,95062.93
2022-08-17T17:06:22.355Z,95066.63
2022-08-17T17:09:17.774Z,95063.91
2022-08-17T17:11:52.126Z,95067.03
2022-08-17T17:14:27.938Z,95076.19
2022-08-17T17:17:06.718Z,95078.17
2022-08-17T17:19:55.253Z,95076.30
2022-08-17T17:22:38.697Z,95077.39
2022-08-17T17:25:25.454Z,95083.09
2022-08-17T17:28:06.260Z,95081.44
2022-08-17T17:30:57.404Z,95092.51
2022-08-17T17:33:34.681Z,95092.22
2022-08-17T17:36:07.263Z,95088.27
2022-08-17T17:38:41.790Z,95099.08
2022-08-17T17:41:20.282Z,95094.38
2022-08-17T17:43:54.585Z,95103.42
2022-08-17T17:46:33.471Z,95100.79
2022-08-17T17:49:02.193Z,95108.37
2022-08-17T17:52:08.614Z,95109.48
2022-08-17T17:54:22.932Z,95117.51
2022-08-17T17:57:09.914Z,95119.75
2022-08-17T17:59:47.624Z,95123.50
2022-08-17T18:02:43.248Z,95129.41
2022-08-17T18:05:32.940Z,95129.65
2022-08-17T18:08:34.886Z,95126.67
2022-08-17T18:11:34.722Z,95133.50
2022-08-17T18:14:01.077Z,95140.11
2022-08-17T18:16:32.926Z,95142.09
2022-08-17T18:19:01.804Z,95142.17
2022-08-17T18:21:40.817Z,95145.09
2022-08-17T18:24:10.698Z,95145.27
2022-08-17T18:26:55.467Z,95143.56
2022-08-17T18:29:34.604Z,95147.27
2022-08-17T18:32:19.176Z,95158.73
2022-08-17T18:34:51.106Z,95155.89
2022-08-17T18:37:34.612Z,95166.56
2022-08-17T18:40:21.630Z,95163.30
2022-08-17T18:43:11.400Z,95165.86
2022-08-17T18:45:50.886Z,95165.91
2022-08-17T18:48:33.043Z,95168.98
2022-08-17T18:51:07.547Z,95170.77
2022-08-17T18:53:41.308Z,95178.53
2022-08-17T18:56:24.785Z,95182.06
2022-08-17T18:59:05.243Z,95179.67
2022-08-17T19:01:53.395Z,95181.47
2022-08-17T19:04:42.553Z,95182.41
2022-08-17T19:07:19.809Z,95187.90
2022-08-17T19:09:51.443Z,95191.84
2022-08-17T19:12:38.498Z,95191.39
2022-08-17T19:15:11.240Z,95184.46
2022-08-17T19:17:57.698Z,95186.73
2022-08-17T19:20:29.490Z,95191.13
2022-08-17T19:23:23.917Z,95180.42
2022-08-17T19:25:59.441Z,95190.10
2022-08-17T19:28:53.250Z,95193.28
2022-08-17T19:31:24.570Z,95194.64
2022-08-17T19:33:53.867Z,95194.65
2022-08-17T19:36:29.578Z,95199.20
2022-08-17T19:39:18.040Z,95199.63
2022-08-17T19:41:58.708Z,95198.85
2022-08-17T19:44:50.895Z,95196.70
2022-08-17T19:47:54.789Z,95196.13
2022-08-17T19:50:44.777Z,95198.23
2022-08-17T19:53:23.502Z,95194.77
2022-08-17T19:56:11.740Z,95193.67
2022-08-17T19:58:58.737Z,95201.10
2022-08-17T20:01:36.439Z,95202.75
2022-08-17T20:04:17.279Z,95206.67
2022-08-17T20:06:50.602Z,95205.47
2022-08-17T20:09:33.629Z,95209.23
2022-08-17T20:12:14.047Z,95203.92
2022-08-17T20:14:53.469Z,95203.33
2022-08-17T20:17:16.641Z,95206.63
2022-08-17T20:19:55.518Z,95206.91
2022-08-17T20:22:31.326Z,95202.68
2022-08-17T20:25:13.765Z,95206.91
2022-08-17T20:27:54.492Z,95209.33
2022-08-17T20:30:27.833Z,95209.91
2022-08-17T20:33:02.328Z,95208.67
2022-08-17T20:35:39.455Z,95215.92
2022-08-17T20:38:13.884Z,95217.83
2022-08-17T20:40:59.703Z,95215.09
2022-08-17T20:43:37.597Z,95214.52
2022-08-17T20:46:27.085Z,95217.83
2022-08-17T20:49:01.529Z,95216.27
2022-08-17T20:51:37.759Z,95223.18
2022-08-17T20:54:18.222Z,95218.65
2022-08-17T20:56:49.647Z,95217.67
2022-08-17T20:59:28.567Z,95212.35
2022-08-17T21:02:18.489Z,95217.63
2022-08-17T21:04:48.555Z,95216.70
2022-08-17T21:07:42.792Z,95214.84
2022-08-17T21:10:15.189Z,95211.86
2022-08-17T21:13:01.676Z,95218.30
2022-08-17T21:15:44.543Z,95216.50
2022-08-17T21:18:31.306Z,95212.12
2022-08-17T21:21:28.444Z,95212.08
2022-08-17T21:24:02.738Z,95218.56
2022-08-17T21:26:50.459Z,95215.05
2022-08-17T21:29:31.020Z,95222.14
2022-08-17T21:32:13.765Z,95221.56
2022-08-17T21:34:47.278Z,95232.69
2022-08-17T21:37:25.029Z,95226.66
2022-08-17T21:40:08.637Z,95226.08
2022-08-17T21:42:34.804Z,95239.30
2022-08-17T21:45:29.847Z,95238.81
2022-08-17T21:48:16.783Z,95239.81
2022-08-17T21:51:04.338Z,95235.44
2022-08-17T21:53:48.063Z,95240.34
2022-08-17T21:56:22.589Z,95244.37
2022-08-17T21:58:56.891Z,95238.08
2022-08-17T22:01:28.706Z,95243.02
2022-08-17T22:04:03.058Z,95240.38
2022-08-17T22:06:40.345Z,95241.53
2022-08-17T22:09:12.703Z,95240.92
2022-08-17T22:12:07.727Z,95241.81
2022-08-17T22:14:52.063Z,95241.61
2022-08-17T22:17:22.807Z,95238.37
2022-08-17T22:20:12.331Z,95242.88
2022-08-17T22:23:02.603Z,95241.08
2022-08-17T22:25:35.110Z,95237.87
2022-08-17T22:28:08.504Z,95234.69
2022-08-17T22:31:05.360Z,95237.48
2022-08-17T22:33:41.225Z,95230.88
2022-08-17T22:36:29.912Z,95227.13
2022-08-17T22:39:12.089Z,95232.24
2022-08-17T22:41:56.068Z,95226.86
2022-08-17T22:44:42.696Z,95231.27
2022-08-17T22:47:19.231Z,95224.14
2022-08-17T22:50:03.393Z,95231.42
2022-08-17T22:52:42.996Z,95235.22
2022-08-17T22:58:44.017Z,95234.64
2022-08-17T23:01:31.513Z,95231.77
2022-08-17T23:04:04.595Z,95227.30
2022-08-17T23:06:39.399Z,95223.58
2022-08-17T23:09:09.236Z,95224.78
2022-08-17T23:11:49.878Z,95219.23
2022-08-17T23:14:23.330Z,95226.16
2022-08-17T23:16:56.654Z,95222.97
2022-08-17T23:19:33.846Z,95227.48
2022-08-17T23:22:05.716Z,95218.84
2022-08-17T23:24:37.416Z,95195.50
2022-08-17T23:27:12.531Z,95219.56
2022-08-17T23:29:46.386Z,95215.95
2022-08-17T23:32:20.578Z,95210.66
2022-08-17T23:34:52.200Z,95210.91
2022-08-17T23:37:27.237Z,95207.97
2022-08-17T23:40:01.076Z,95211.75
2022-08-17T23:42:30.807Z,95216.73
2022-08-17T23:44:59.872Z,95217.10
2022-08-17T23:47:31.639Z,95223.71
2022-08-17T23:50:01.767Z,95219.33
2022-08-17T23:52:35.168Z,95224.88
2022-08-17T23:55:05.710Z,95227.38
2022-08-17T23:57:36.241Z,95221.92
